createdAt,value
2018-12-29T00:03:45.209Z,11.65
2018-12-29T00:06:34.591Z,12.58
2018-12-29T00:09:23.663Z,13.32
2018-12-29T00:12:12.752Z,12.45
2018-12-29T00:15:01.842Z,13.93
2018-12-29T00:17:50.910Z,13.62
2018-12-29T00:20:40.002Z,13.48
2018-12-29T00:23:29.073Z,12.73
2018-12-29T00:26:18.134Z,13.65
2018-12-29T00:29:07.222Z,14.20
2018-12-29T00:31:56.280Z,12.88
2018-12-29T00:34:26.105Z,12.90
2018-12-29T00:37:15.190Z,14.60
2018-12-29T00:43:18.885Z,14.20
2018-12-29T00:46:07.980Z,13.98
2018-12-29T00:48:57.030Z,16.35
2018-12-29T00:51:46.236Z,14.30
2018-12-29T00:54:16.026Z,11.20
2018-12-29T00:57:05.124Z,12.28
2018-12-29T00:59:54.181Z,12.00
2018-12-29T01:02:43.296Z,12.50
2018-12-29T01:05:32.374Z,11.70
2018-12-29T01:08:02.576Z,10.40
2018-12-29T01:10:32.416Z,12.10
2018-12-29T01:13:21.498Z,11.80
2018-12-29T01:16:10.897Z,10.78
2018-12-29T01:18:59.963Z,11.25
2018-12-29T01:21:49.334Z,8.73
2018-12-29T01:24:38.446Z,10.70
2018-12-29T01:27:27.495Z,9.85
2018-12-29T01:29:57.324Z,8.98
2018-12-29T01:32:46.365Z,9.78
2018-12-29T01:35:28.044Z,9.83
2018-12-29T01:38:17.099Z,9.45
2018-12-29T01:41:06.165Z,11.53
2018-12-29T01:43:55.347Z,10.58
2018-12-29T01:46:44.428Z,9.85
2018-12-29T01:49:33.498Z,9.43
2018-12-29T01:52:22.592Z,10.70
2018-12-29T01:55:11.670Z,9.20
2018-12-29T01:58:00.738Z,10.48
2018-12-29T02:00:49.803Z,10.78
2018-12-29T02:03:39.240Z,9.68
2018-12-29T02:06:28.306Z,11.35
2018-12-29T02:09:17.436Z,9.95
2018-12-29T02:12:06.738Z,9.83
2018-12-29T02:14:55.812Z,10.60
2018-12-29T02:17:44.968Z,11.38
2018-12-29T02:20:34.026Z,10.48
2018-12-29T02:23:23.086Z,9.10
2018-12-29T02:26:12.177Z,10.65
2018-12-29T02:29:01.233Z,9.58
2018-12-29T02:31:50.311Z,9.25
2018-12-29T02:34:20.094Z,10.00
2018-12-29T02:37:09.191Z,10.18
2018-12-29T02:39:58.526Z,9.50
2018-12-29T02:42:47.642Z,10.23
2018-12-29T02:45:36.695Z,10.90
2018-12-29T02:48:25.811Z,9.90
2018-12-29T02:51:14.874Z,10.53
2018-12-29T02:54:03.941Z,9.60
2018-12-29T02:56:53.242Z,11.40
2018-12-29T02:59:42.290Z,8.80
2018-12-29T03:02:31.362Z,9.60
2018-12-29T03:05:20.442Z,10.00
2018-12-29T03:08:09.502Z,9.48
2018-12-29T03:10:58.533Z,8.65
2018-12-29T03:13:47.599Z,9.05
2018-12-29T03:16:36.710Z,10.20
2018-12-29T03:19:25.714Z,9.98
2018-12-29T03:22:14.799Z,10.70
2018-12-29T03:25:03.961Z,8.55
2018-12-29T03:28:00.104Z,10.45
2018-12-29T03:30:49.151Z,9.85
2018-12-29T03:33:38.344Z,10.65
2018-12-29T03:36:20.312Z,10.68
2018-12-29T03:39:09.412Z,11.57
2018-12-29T03:41:58.467Z,11.45
2018-12-29T03:44:47.519Z,8.88
2018-12-29T03:47:36.588Z,9.30
2018-12-29T03:50:25.693Z,10.13
2018-12-29T03:53:14.731Z,9.28
2018-12-29T03:56:04.101Z,9.83
2018-12-29T03:58:53.165Z,9.95
2018-12-29T04:01:42.267Z,11.18
2018-12-29T04:04:31.327Z,11.85
2018-12-29T04:07:20.382Z,10.90
2018-12-29T04:10:30.230Z,8.95
2018-12-29T04:13:19.297Z,11.63
2018-12-29T04:16:08.396Z,9.78
2018-12-29T04:18:57.447Z,9.88
2018-12-29T04:21:46.510Z,10.75
2018-12-29T04:24:35.589Z,9.50
2018-12-29T04:27:24.667Z,10.05
2018-12-29T04:30:13.731Z,11.03
2018-12-29T04:33:02.795Z,10.82
2018-12-29T04:35:45.128Z,9.60
2018-12-29T04:38:34.176Z,12.13
2018-12-29T04:41:23.270Z,9.90
2018-12-29T04:44:12.330Z,10.65
2018-12-29T04:47:01.405Z,9.95
2018-12-29T04:49:50.514Z,9.38
2018-12-29T04:52:39.601Z,10.90
2018-12-29T04:55:28.669Z,8.85
2018-12-29T04:58:17.734Z,10.18
2018-12-29T05:00:47.506Z,11.50
2018-12-29T05:03:36.637Z,10.70
2018-12-29T05:06:25.705Z,11.12
2018-12-29T05:09:14.770Z,9.70
2018-12-29T05:12:03.841Z,9.88
2018-12-29T05:14:52.894Z,8.10
2018-12-29T05:17:41.962Z,9.73
2018-12-29T05:20:31.027Z,9.78
2018-12-29T05:23:20.087Z,10.70
2018-12-29T05:26:09.188Z,9.78
2018-12-29T05:28:58.248Z,10.23
2018-12-29T05:31:47.329Z,10.70
2018-12-29T05:34:36.631Z,9.60
2018-12-29T05:37:18.794Z,10.40
2018-12-29T05:40:07.833Z,9.78
2018-12-29T05:42:56.918Z,9.65
2018-12-29T05:45:45.969Z,9.25
2018-12-29T05:48:35.054Z,10.88
2018-12-29T05:51:24.120Z,9.80
2018-12-29T05:54:13.182Z,8.60
2018-12-29T05:57:02.249Z,10.60
2018-12-29T05:59:51.343Z,10.70
2018-12-29T06:02:40.398Z,9.23
2018-12-29T06:05:29.503Z,11.63
2018-12-29T06:08:18.549Z,11.25
2018-12-29T06:11:07.618Z,11.78
2018-12-29T06:13:56.733Z,10.00
2018-12-29T06:16:45.810Z,10.93
2018-12-29T06:19:34.857Z,11.63
2018-12-29T06:22:23.939Z,13.20
2018-12-29T06:25:12.996Z,12.93
2018-12-29T06:28:02.050Z,11.18
2018-12-29T06:30:51.122Z,10.63
2018-12-29T06:33:40.177Z,11.25
2018-12-29T06:36:29.254Z,10.15
2018-12-29T06:39:18.354Z,12.00
2018-12-29T06:42:07.396Z,11.20
2018-12-29T06:44:56.500Z,10.45
2018-12-29T06:47:45.569Z,11.28
2018-12-29T06:50:34.638Z,11.20
2018-12-29T06:53:23.722Z,11.22
2018-12-29T06:56:12.819Z,10.55
2018-12-29T06:59:01.882Z,11.50
2018-12-29T07:01:51.062Z,11.60
2018-12-29T07:04:40.114Z,11.35
2018-12-29T07:07:29.176Z,11.05
2018-12-29T07:10:18.510Z,11.12
2018-12-29T07:13:07.707Z,10.90
2018-12-29T07:15:56.863Z,11.03
2018-12-29T07:18:45.958Z,11.05
2018-12-29T07:21:35.028Z,9.60
2018-12-29T07:24:24.090Z,9.83
2018-12-29T07:27:13.153Z,9.65
2018-12-29T07:30:02.249Z,11.55
2018-12-29T07:32:51.333Z,13.30
2018-12-29T07:35:40.421Z,11.00
2018-12-29T07:38:22.373Z,11.93
2018-12-29T07:41:11.461Z,11.38
2018-12-29T07:44:00.570Z,11.08
2018-12-29T07:46:49.846Z,11.18
2018-12-29T07:49:39.330Z,11.73
2018-12-29T07:52:28.454Z,11.35
2018-12-29T07:55:17.506Z,11.38
2018-12-29T07:58:06.577Z,10.95
2018-12-29T08:00:55.665Z,13.10
2018-12-29T08:03:44.729Z,11.60
2018-12-29T08:06:33.810Z,11.93
2018-12-29T08:09:22.897Z,14.33
2018-12-29T08:12:11.964Z,13.53
2018-12-29T08:15:01.032Z,11.25
2018-12-29T08:17:50.100Z,11.22
2018-12-29T08:20:39.276Z,10.43
2018-12-29T08:23:28.332Z,10.70
2018-12-29T08:26:17.410Z,11.30
2018-12-29T08:29:06.476Z,9.90
2018-12-29T08:34:51.452Z,10.93
2018-12-29T08:37:40.541Z,11.78
2018-12-29T08:40:22.600Z,11.20
2018-12-29T08:43:11.689Z,9.73
2018-12-29T08:46:00.792Z,11.55
2018-12-29T08:48:49.875Z,12.70
2018-12-29T08:51:38.970Z,11.50
2018-12-29T08:54:28.095Z,11.10
2018-12-29T08:57:17.127Z,11.83
2018-12-29T09:00:26.960Z,10.48
2018-12-29T09:03:16.073Z,11.40
2018-12-29T09:06:05.186Z,12.07
2018-12-29T09:08:54.274Z,10.72
2018-12-29T09:11:43.323Z,11.12
2018-12-29T09:14:32.434Z,11.45
2018-12-29T09:17:21.485Z,12.63
2018-12-29T09:20:10.561Z,10.15
2018-12-29T09:22:59.673Z,11.93
2018-12-29T09:25:48.734Z,11.80
2018-12-29T09:28:37.843Z,11.70
2018-12-29T09:31:26.903Z,9.40
2018-12-29T09:34:22.249Z,11.53
2018-12-29T09:37:06.826Z,10.95
2018-12-29T09:39:48.719Z,9.95
2018-12-29T09:42:37.812Z,11.33
2018-12-29T09:45:26.877Z,12.03
2018-12-29T09:48:15.965Z,12.63
2018-12-29T09:51:05.053Z,10.72
2018-12-29T09:53:54.136Z,11.85
2018-12-29T09:56:43.335Z,10.48
2018-12-29T09:59:32.418Z,10.80
2018-12-29T10:02:21.527Z,10.70
2018-12-29T10:05:10.598Z,13.10
2018-12-29T10:07:59.659Z,12.25
2018-12-29T10:10:48.748Z,10.10
2018-12-29T10:13:37.854Z,12.35
2018-12-29T10:16:26.913Z,11.10
2018-12-29T10:19:16.012Z,12.70
2018-12-29T10:22:05.072Z,11.50
2018-12-29T10:24:54.149Z,10.30
2018-12-29T10:27:43.276Z,10.95
2018-12-29T10:30:32.361Z,10.58
2018-12-29T10:33:21.444Z,10.93
2018-12-29T10:36:10.557Z,9.93
2018-12-29T10:38:52.549Z,11.30
2018-12-29T10:41:41.639Z,11.03
2018-12-29T10:44:30.709Z,11.33
2018-12-29T10:47:19.792Z,10.30
2018-12-29T10:50:08.877Z,11.73
2018-12-29T10:52:58.090Z,11.60
2018-12-29T10:55:47.134Z,12.40
2018-12-29T11:01:31.924Z,10.30
2018-12-29T11:04:21.100Z,10.53
2018-12-29T11:07:10.345Z,10.40
2018-12-29T11:09:59.466Z,11.50
2018-12-29T11:12:48.530Z,11.68
2018-12-29T11:15:37.615Z,10.32
2018-12-29T11:18:26.728Z,11.50
2018-12-29T11:21:15.827Z,9.98
2018-12-29T11:24:04.924Z,10.10
2018-12-29T11:26:53.988Z,11.65
2018-12-29T11:29:43.147Z,11.35
2018-12-29T11:32:32.232Z,11.15
2018-12-29T11:35:28.547Z,11.55
2018-12-29T11:38:12.123Z,11.95
2018-12-29T11:40:41.929Z,10.68
2018-12-29T11:43:31.148Z,10.05
2018-12-29T11:46:20.213Z,12.45
2018-12-29T11:49:09.326Z,10.53
2018-12-29T11:51:58.720Z,10.68
2018-12-29T11:54:47.898Z,10.18
2018-12-29T11:57:37.037Z,10.80
2018-12-29T12:00:26.196Z,9.53
2018-12-29T12:03:15.248Z,9.70
2018-12-29T12:05:45.070Z,8.77
2018-12-29T12:08:34.171Z,11.15
2018-12-29T12:11:23.329Z,9.80
2018-12-29T12:14:12.405Z,10.45
2018-12-29T12:17:01.702Z,9.93
2018-12-29T12:19:51.066Z,9.47
2018-12-29T12:22:40.505Z,9.87
2018-12-29T12:25:29.851Z,10.93
2018-12-29T12:28:31.834Z,10.00
2018-12-29T12:31:10.121Z,9.73
2018-12-29T12:33:59.218Z,11.57
2018-12-29T12:36:50.031Z,10.67
2018-12-29T12:39:32.161Z,8.00
2018-12-29T12:42:21.264Z,9.13
2018-12-29T12:45:10.361Z,10.13
2018-12-29T12:48:05.046Z,10.57
2018-12-29T12:50:50.343Z,9.23
2018-12-29T12:53:39.487Z,9.10
2018-12-29T12:56:28.578Z,7.87
2018-12-29T12:59:17.655Z,8.40
2018-12-29T13:02:08.460Z,7.97
2018-12-29T13:04:59.731Z,8.00
2018-12-29T13:07:48.822Z,7.57
2018-12-29T13:10:18.736Z,7.10
2018-12-29T13:13:07.829Z,6.93
2018-12-29T13:15:56.886Z,6.90
2018-12-29T13:18:45.987Z,6.10
2018-12-29T13:21:54.084Z,6.27
2018-12-29T13:24:23.977Z,6.80
2018-12-29T13:27:12.703Z,7.43
2018-12-29T13:30:01.784Z,6.00
2018-12-29T13:32:50.899Z,7.17
2018-12-29T13:35:39.970Z,6.00
2018-12-29T13:38:29.169Z,6.07
2018-12-29T13:41:11.598Z,6.00
2018-12-29T13:44:00.681Z,6.10
2018-12-29T13:46:49.875Z,6.37
2018-12-29T13:49:38.932Z,5.80
2018-12-29T13:55:43.370Z,6.73
2018-12-29T13:58:32.460Z,6.40
2018-12-29T14:01:21.491Z,5.63
2018-12-29T14:04:10.588Z,5.00
2018-12-29T14:07:20.419Z,6.63
2018-12-29T14:10:09.555Z,5.85
2018-12-29T14:12:58.612Z,6.17
2018-12-29T14:15:48.039Z,5.40
2018-12-29T14:18:37.057Z,7.37
2018-12-29T14:21:26.110Z,6.83
2018-12-29T14:24:15.181Z,6.67
2018-12-29T14:27:04.245Z,6.17
2018-12-29T14:29:53.416Z,6.33
2018-12-29T14:32:42.793Z,6.80
2018-12-29T14:35:31.881Z,6.73
2018-12-29T14:38:41.681Z,5.58
2018-12-29T14:41:23.385Z,6.97
2018-12-29T14:44:12.477Z,6.45
2018-12-29T14:47:01.534Z,7.30
2018-12-29T14:49:50.606Z,6.47
2018-12-29T14:52:39.965Z,7.30
2018-12-29T14:55:29.043Z,7.08
2018-12-29T14:58:18.096Z,6.60
2018-12-29T15:01:07.174Z,7.03
2018-12-29T15:03:56.269Z,6.33
2018-12-29T15:06:45.641Z,6.47
2018-12-29T15:09:34.702Z,5.90
2018-12-29T15:12:23.799Z,5.60
2018-12-29T15:15:14.624Z,6.10
2018-12-29T15:18:03.644Z,7.03
2018-12-29T15:20:54.466Z,6.60
2018-12-29T15:23:43.594Z,5.80
2018-12-29T15:26:34.373Z,5.90
2018-12-29T15:29:23.421Z,5.10
2018-12-29T15:32:12.481Z,4.63
2018-12-29T15:35:01.583Z,5.50
2018-12-29T15:37:50.643Z,5.53
2018-12-29T15:40:32.576Z,4.55
2018-12-29T15:43:21.962Z,4.80
2018-12-29T15:46:11.151Z,4.37
2018-12-29T15:49:00.248Z,3.95
2018-12-29T15:51:51.057Z,3.10
2018-12-29T15:54:40.095Z,3.40
2018-12-29T15:57:29.249Z,4.17
2018-12-29T16:00:18.342Z,3.63
2018-12-29T16:03:07.395Z,3.33
2018-12-29T16:05:58.216Z,3.12
2018-12-29T16:08:49.016Z,3.77
2018-12-29T16:11:39.818Z,3.60
2018-12-29T16:14:35.361Z,5.85
2018-12-29T16:17:19.745Z,4.03
2018-12-29T16:20:10.605Z,2.70
2018-12-29T16:22:59.711Z,3.80
2018-12-29T16:26:23.490Z,3.37
2018-12-29T16:28:58.942Z,4.47
2018-12-29T16:31:48.212Z,4.10
2018-12-29T16:34:39.019Z,3.65
2018-12-29T16:37:28.097Z,3.87
2018-12-29T16:40:17.164Z,4.65
2018-12-29T16:42:59.197Z,4.83
2018-12-29T16:48:56.972Z,5.05
2018-12-29T16:51:33.772Z,5.20
2018-12-29T16:54:22.851Z,3.90
2018-12-29T16:57:32.700Z,4.67
2018-12-29T17:00:21.809Z,5.12
2018-12-29T17:03:11.737Z,4.72
2018-12-29T17:06:02.382Z,5.03
2018-12-29T17:08:54.746Z,4.83
2018-12-29T17:11:52.015Z,5.10
2018-12-29T17:14:35.554Z,3.90
2018-12-29T17:20:19.754Z,4.47
2018-12-29T17:23:09.230Z,4.70
2018-12-29T17:26:02.024Z,5.55
2018-12-29T17:28:52.718Z,5.28
2018-12-29T17:31:43.525Z,5.83
2018-12-29T17:34:32.606Z,5.65
2018-12-29T17:37:22.323Z,4.83
2018-12-29T17:40:11.450Z,5.50
2018-12-29T17:42:53.697Z,5.35
2018-12-29T17:45:42.833Z,6.40
2018-12-29T17:48:31.916Z,5.60
2018-12-29T17:51:20.959Z,5.58
2018-12-29T17:54:22.447Z,5.05
2018-12-29T17:57:01.238Z,5.20
2018-12-29T17:59:50.474Z,6.42
2018-12-29T18:02:39.536Z,5.83
2018-12-29T18:05:41.351Z,6.22
2018-12-29T18:08:20.275Z,6.75
2018-12-29T18:11:09.365Z,5.87
2018-12-29T18:13:58.426Z,6.25
2018-12-29T18:16:47.878Z,5.70
2018-12-29T18:19:38.373Z,5.87
2018-12-29T18:22:29.183Z,5.70
2018-12-29T18:25:20.056Z,7.03
2018-12-29T18:28:10.856Z,5.97
2018-12-29T18:31:00.023Z,5.75
2018-12-29T18:33:49.101Z,5.67
2018-12-29T18:36:38.268Z,6.12
2018-12-29T18:39:27.444Z,6.20
2018-12-29T18:42:09.204Z,7.10
2018-12-29T18:44:58.329Z,5.95
2018-12-29T18:47:47.444Z,7.55
2018-12-29T18:50:36.533Z,7.05
2018-12-29T18:53:25.574Z,6.42
2018-12-29T18:56:14.904Z,8.80
2018-12-29T18:59:04.088Z,7.67
2018-12-29T19:01:57.606Z,9.05
2018-12-29T19:07:40.064Z,9.20
2018-12-29T19:10:35.248Z,9.65
2018-12-29T19:13:24.574Z,8.58
2018-12-29T19:16:08.475Z,8.50
2018-12-29T19:18:45.482Z,9.08
2018-12-29T19:21:36.298Z,9.60
2018-12-29T19:24:07.833Z,9.15
2018-12-29T19:29:27.802Z,11.55
2018-12-29T19:32:18.642Z,11.12
2018-12-29T19:38:17.654Z,12.40
2018-12-29T19:41:08.431Z,11.80
2018-12-29T19:43:59.346Z,10.98
2018-12-29T19:49:34.052Z,12.68
2018-12-29T19:52:23.171Z,12.33
2018-12-29T19:55:12.335Z,12.67
2018-12-29T19:58:01.281Z,12.50
2018-12-29T20:03:21.264Z,13.18
2018-12-29T20:06:11.290Z,14.90
2018-12-29T20:09:01.614Z,13.33
2018-12-29T20:14:45.399Z,12.30
2018-12-29T20:17:35.297Z,14.23
2018-12-29T20:20:25.599Z,11.63
2018-12-29T20:23:14.679Z,12.63
2018-12-29T20:28:59.325Z,12.13
2018-12-29T20:31:48.455Z,13.78
2018-12-29T20:34:50.534Z,10.13
2018-12-29T20:37:28.426Z,12.20
2018-12-29T20:40:17.623Z,15.30
2018-12-29T20:42:59.537Z,12.63
2018-12-29T20:45:48.638Z,15.35
2018-12-29T20:48:37.828Z,13.38
2018-12-29T20:51:26.941Z,14.40
2018-12-29T20:54:16.179Z,14.05
2018-12-29T20:57:05.279Z,13.25
2018-12-29T20:59:54.404Z,13.70
2018-12-29T21:02:43.530Z,14.75
2018-12-29T21:05:34.381Z,14.05
2018-12-29T21:08:25.507Z,13.30
2018-12-29T21:11:16.352Z,15.18
2018-12-29T21:14:05.557Z,14.10
2018-12-29T21:16:56.379Z,13.13
2018-12-29T21:19:45.887Z,13.67
2018-12-29T21:22:36.361Z,14.63
2018-12-29T21:25:25.442Z,11.33
2018-12-29T21:28:16.373Z,14.77
2018-12-29T21:31:05.523Z,14.40
2018-12-29T21:33:56.372Z,12.20
2018-12-29T21:36:45.651Z,14.28
2018-12-29T21:39:36.563Z,10.60
2018-12-29T21:45:42.004Z,10.30
2018-12-29T21:48:31.186Z,11.57
2018-12-29T21:54:35.789Z,11.03
2018-12-29T21:57:25.100Z,10.57
2018-12-29T22:00:14.405Z,9.53
2018-12-29T22:03:03.546Z,9.38
2018-12-29T22:05:52.778Z,9.00
2018-12-29T22:08:42.014Z,7.60
2018-12-29T22:11:31.263Z,8.77
2018-12-29T22:14:20.718Z,8.20
2018-12-29T22:17:11.635Z,8.23
2018-12-29T22:20:00.983Z,5.60
2018-12-29T22:22:51.677Z,6.67
2018-12-29T22:25:48.030Z,5.80
2018-12-29T22:28:31.644Z,5.57
2018-12-29T22:34:31.116Z,5.03
2018-12-29T22:43:21.495Z,5.00
2018-12-29T22:46:31.171Z,5.00
2018-12-29T22:54:56.164Z,3.08
2018-12-29T22:57:45.272Z,2.77
2018-12-29T23:03:30.255Z,1.90
2018-12-29T23:06:19.169Z,2.05
2018-12-29T23:12:21.896Z,2.23
2018-12-29T23:15:11.049Z,1.60
2018-12-29T23:18:00.481Z,1.30
2018-12-29T23:20:49.777Z,2.10
2018-12-29T23:26:34.882Z,1.70
2018-12-29T23:29:23.994Z,1.12
2018-12-29T23:32:13.113Z,1.97
2018-12-29T23:35:02.530Z,2.30
2018-12-29T23:37:51.637Z,1.62
2018-12-29T23:40:40.890Z,1.17
2018-12-29T23:43:22.780Z,1.00
2018-12-29T23:46:12.073Z,1.60
2018-12-29T23:49:01.279Z,1.13
2018-12-29T23:51:50.570Z,0.93
2018-12-29T23:54:39.753Z,1.50
